Time;durP1;ratioP1;P1;durP2;ratioP2;P2;SDS_P1;SDS_P2;PMS_P1;PMS_P2;Temp;Humidity;BMP_temperature;BMP_pressure;BME280_temperature;BME280_humidity;BME280_pressure;Samples;Min_cycle;Max_cycle;Signal;HPM_P1;HPM_P2
2021/07/18 00:02:16;;;;;;;8.50;7.10;;;;;;;29.73;59.00;99297.90;1752864;80;21526;-68
2021/07/18 00:04:42;;;;;;;7.33;6.58;;;;;;;29.73;59.03;99297.90;1752640;80;21212;-71
2021/07/18 00:07:09;;;;;;;8.10;6.67;;;;;;;29.72;59.04;99295.70;1729278;81;21025;-72
2021/07/18 00:09:37;;;;;;;7.40;6.47;;;;;;;29.72;59.02;99286.65;1752652;80;21098;-71
2021/07/18 00:12:05;;;;;;;7.85;7.05;;;;;;;29.71;59.04;99289.12;1757280;80;21037;-71
2021/07/18 00:14:32;;;;;;;7.33;6.62;;;;;;;29.72;59.06;99286.65;1752532;80;21048;-66
2021/07/18 00:16:59;;;;;;;7.53;6.83;;;;;;;29.72;59.07;99279.81;1752793;80;21099;-66
2021/07/18 00:19:25;;;;;;;7.67;6.70;;;;;;;29.71;59.07;99273.53;1752948;80;21017;-66
2021/07/18 00:21:51;;;;;;;7.97;7.17;;;;;;;29.71;59.08;99278.17;1752824;80;21084;-68
2021/07/18 00:24:18;;;;;;;7.37;6.58;;;;;;;29.71;59.14;99280.91;1752462;80;21519;-68
2021/07/18 00:26:44;;;;;;;7.80;7.10;;;;;;;29.70;59.15;99278.73;1752717;80;21107;-68
2021/07/18 00:29:11;;;;;;;9.48;6.87;;;;;;;29.70;59.17;99270.53;1752727;80;21119;-67
2021/07/18 00:31:39;;;;;;;7.08;6.47;;;;;;;29.71;59.19;99271.33;1752452;80;21100;-68
2021/07/18 00:34:06;;;;;;;8.68;7.30;;;;;;;29.72;59.21;99274.33;1750644;80;21037;-70
2021/07/18 00:36:35;;;;;;;7.72;6.90;;;;;;;29.71;59.21;99276.80;1752932;80;21106;-71
2021/07/18 00:39:02;;;;;;;7.15;6.45;;;;;;;29.71;59.22;99276.80;1752980;80;21080;-71
2021/07/18 00:41:30;;;;;;;7.50;6.62;;;;;;;29.70;59.21;99272.47;1753051;81;21145;-71
2021/07/18 00:43:57;;;;;;;7.87;7.10;;;;;;;29.70;59.22;99271.90;1753031;81;21550;-71
2021/07/18 00:46:23;;;;;;;7.85;7.05;;;;;;;29.70;59.26;99271.90;1753045;79;21068;-73
2021/07/18 00:48:50;;;;;;;7.50;6.80;;;;;;;29.69;59.26;99264.82;1753018;81;21104;-70
2021/07/18 00:51:16;;;;;;;6.80;6.10;;;;;;;29.70;59.24;99260.95;1753130;79;21107;-72
2021/07/18 00:53:43;;;;;;;8.20;7.50;;;;;;;29.69;59.23;99259.34;1753172;81;21897;-71
2021/07/18 00:56:11;;;;;;;6.95;6.35;;;;;;;29.69;59.26;99259.34;1753012;81;21024;-70
2021/07/18 00:58:40;;;;;;;7.40;6.70;;;;;;;29.69;59.31;99251.13;1753099;81;21513;-69
2021/07/18 01:01:07;;;;;;;7.10;6.40;;;;;;;29.70;59.36;99253.30;1753218;81;21040;-68
2021/07/18 01:03:33;;;;;;;7.33;6.62;;;;;;;29.69;59.38;99247.56;1753133;81;21068;-68
2021/07/18 01:05:59;;;;;;;7.65;6.60;;;;;;;29.69;59.40;99246.19;1750341;81;21127;-68
2021/07/18 01:08:27;;;;;;;7.03;6.33;;;;;;;29.68;59.44;99246.77;1750876;80;21032;-68
2021/07/18 01:10:53;;;;;;;7.28;6.50;;;;;;;29.67;59.46;99247.89;1720377;82;21041;-70
2021/07/18 01:13:20;;;;;;;7.08;6.45;;;;;;;29.68;59.45;99245.96;1749219;81;21528;-70
2021/07/18 01:15:46;;;;;;;7.37;6.67;;;;;;;29.67;59.47;99240.22;1728567;81;21096;-70
2021/07/18 01:18:13;;;;;;;8.18;6.97;;;;;;;29.67;59.47;99242.95;1749076;81;21115;-69
2021/07/18 01:20:41;;;;;;;10.40;7.22;;;;;;;29.67;59.48;99245.16;1749159;81;21010;-71
2021/07/18 01:23:08;;;;;;;7.55;6.80;;;;;;;29.67;59.52;99250.63;1749102;81;21041;-69
2021/07/18 01:25:36;;;;;;;7.45;6.75;;;;;;;29.67;59.52;99251.17;1749292;81;21100;-70
2021/07/18 01:28:10;;;;;;;7.92;7.12;;;;;;;29.65;59.58;99251.50;1749109;81;21555;-70
2021/07/18 01:30:37;;;;;;;7.00;6.40;;;;;;;29.66;59.54;99253.67;1748949;81;21113;-70
2021/07/18 01:33:03;;;;;;;7.72;6.95;;;;;;;29.65;59.60;99255.60;1749101;81;21025;-70
2021/07/18 01:35:30;;;;;;;7.62;6.85;;;;;;;29.66;59.58;99250.94;1749453;81;21568;-70
2021/07/18 01:37:57;;;;;;;6.70;6.10;;;;;;;29.66;59.57;99253.67;1749786;81;21054;-70
2021/07/18 01:40:25;;;;;;;7.58;6.95;;;;;;;29.65;59.59;99256.97;1749269;81;21100;-70
2021/07/18 01:42:52;;;;;;;7.53;6.85;;;;;;;29.65;59.61;99253.41;1749497;81;21149;-70
2021/07/18 01:45:18;;;;;;;8.28;7.47;;;;;;;29.65;59.63;99252.87;1746242;81;21967;-71
2021/07/18 01:47:46;;;;;;;7.45;6.75;;;;;;;29.65;59.64;99252.03;1729347;83;21100;-70
2021/07/18 01:50:12;;;;;;;7.45;6.80;;;;;;;29.65;59.63;99253.41;1729486;82;21608;-70
2021/07/18 01:52:39;;;;;;;7.05;6.47;;;;;;;29.65;59.63;99253.41;1713455;83;21014;-71
2021/07/18 01:55:08;;;;;;;10.18;7.25;;;;;;;29.64;59.64;99245.76;1729461;82;21607;-70
2021/07/18 01:57:34;;;;;;;7.45;6.75;;;;;;;29.64;59.65;99250.43;1729401;83;21013;-72
2021/07/18 02:00:01;;;;;;;7.03;6.33;;;;;;;29.63;59.68;99257.01;1713544;83;21053;-70
2021/07/18 02:02:27;;;;;;;7.15;6.55;;;;;;;29.63;59.73;99263.84;1729367;82;21045;-70
2021/07/18 02:04:54;;;;;;;6.92;6.25;;;;;;;29.63;59.73;99267.95;1729727;82;21053;-70
2021/07/18 02:07:20;;;;;;;7.85;6.87;;;;;;;29.63;59.74;99262.48;1729211;82;22083;-72
2021/07/18 02:09:47;;;;;;;7.22;6.53;;;;;;;29.61;59.75;99254.57;1716865;81;21108;-71
2021/07/18 02:12:14;;;;;;;6.67;6.08;;;;;;;29.61;59.75;99264.15;1726988;82;20994;-70
2021/07/18 02:14:41;;;;;;;7.67;5.90;;;;;;;29.62;59.80;99264.98;1756826;81;22113;-71
2021/07/18 02:17:07;;;;;;;6.08;5.47;;;;;;;29.60;59.69;99248.86;1739963;82;21540;-72
2021/07/18 02:19:34;;;;;;;6.58;5.95;;;;;;;29.59;57.94;99248.59;1729493;82;21116;-71
2021/07/18 02:22:00;;;;;;;5.85;5.25;;;;;;;29.57;56.06;99246.19;1716987;82;21055;-71
2021/07/18 02:24:27;;;;;;;6.45;5.85;;;;;;;29.54;54.75;99245.42;1718634;83;21085;-72
2021/07/18 02:26:54;;;;;;;5.85;5.15;;;;;;;29.49;53.65;99244.15;1718389;82;21549;-72
2021/07/18 02:29:21;;;;;;;5.85;5.03;;;;;;;29.45;52.83;99239.05;1719544;83;21040;-71
2021/07/18 02:31:52;;;;;;;5.97;5.37;;;;;;;29.40;52.62;99231.77;1708406;83;21148;-72
2021/07/18 02:34:19;;;;;;;6.35;5.05;;;;;;;29.37;52.36;99235.66;1708558;84;21009;-72
2021/07/18 02:36:47;;;;;;;5.40;4.90;;;;;;;29.31;52.05;99230.05;1708716;83;21529;-70
2021/07/18 02:39:14;;;;;;;6.35;5.30;;;;;;;29.29;51.70;99237.75;1719448;83;21085;-70
2021/07/18 02:41:41;;;;;;;6.00;5.50;;;;;;;29.25;51.29;99230.70;1719456;83;21108;-71
2021/07/18 02:44:07;;;;;;;5.85;4.60;;;;;;;29.23;50.99;99229.41;1719379;83;22709;-70
2021/07/18 02:46:35;;;;;;;5.35;4.85;;;;;;;29.18;50.89;99237.94;1742970;80;21027;-71
2021/07/18 02:49:01;;;;;;;5.83;5.30;;;;;;;29.16;50.65;99242.10;1749629;82;21035;-70
2021/07/18 02:51:28;;;;;;;5.87;5.15;;;;;;;29.13;50.56;99243.53;1749117;82;21032;-70
2021/07/18 02:53:54;;;;;;;5.75;5.08;;;;;;;29.11;50.29;99238.06;1749587;82;21102;-71
2021/07/18 02:56:22;;;;;;;5.70;5.15;;;;;;;29.09;50.07;99233.45;1753035;81;21780;-71
2021/07/18 02:58:48;;;;;;;5.70;4.80;;;;;;;29.07;49.84;99237.05;1749355;82;21035;-71
2021/07/18 03:01:15;;;;;;;5.22;4.72;;;;;;;29.04;49.63;99233.57;1748753;82;21086;-70
2021/07/18 03:03:42;;;;;;;5.72;4.90;;;;;;;29.02;49.53;99233.86;1749558;82;21004;-71
2021/07/18 03:06:09;;;;;;;5.60;5.10;;;;;;;28.99;49.41;99228.99;1749679;82;21111;-70
2021/07/18 03:08:38;;;;;;;6.10;4.65;;;;;;;28.97;49.07;99227.12;1749314;82;21511;-71
2021/07/18 03:11:06;;;;;;;5.60;5.10;;;;;;;28.94;49.03;99227.17;1749399;82;21219;-71
2021/07/18 03:13:32;;;;;;;6.50;5.05;;;;;;;28.93;48.79;99232.94;1749455;82;21051;-70
2021/07/18 03:15:59;;;;;;;7.05;5.78;;;;;;;28.90;48.64;99238.47;1749612;82;21546;-70
2021/07/18 03:18:25;;;;;;;6.15;5.22;;;;;;;28.89;48.43;99231.92;1749014;82;21125;-71
2021/07/18 03:20:52;;;;;;;5.80;5.30;;;;;;;28.86;48.17;99227.89;1749634;81;21834;-71
2021/07/18 03:23:21;;;;;;;5.42;4.83;;;;;;;28.85;47.92;99235.02;1752884;81;21479;-72
2021/07/18 03:25:48;;;;;;;5.62;5.12;;;;;;;28.83;47.74;99238.84;1749222;82;21522;-71
2021/07/18 03:28:15;;;;;;;5.33;4.83;;;;;;;28.79;47.48;99235.09;1749717;82;21086;-71
2021/07/18 03:30:42;;;;;;;6.40;5.80;;;;;;;28.79;47.35;99238.39;1749587;81;21032;-69
2021/07/18 03:33:08;;;;;;;5.70;5.17;;;;;;;28.77;47.38;99233.79;1750137;82;21746;-70
2021/07/18 03:35:35;;;;;;;7.05;5.17;;;;;;;28.76;47.34;99230.78;1749610;81;21071;-70
2021/07/18 03:38:01;;;;;;;5.40;4.90;;;;;;;28.74;47.27;99234.38;1749625;82;21024;-71
2021/07/18 03:40:28;;;;;;;5.12;4.55;;;;;;;28.72;47.27;99237.41;1749782;81;21053;-71
2021/07/18 03:42:55;;;;;;;5.55;5.05;;;;;;;28.70;47.35;99236.89;1749356;81;21050;-71
2021/07/18 03:45:22;;;;;;;8.23;5.87;;;;;;;28.69;47.46;99231.19;1748790;81;21141;-70
2021/07/18 03:47:49;;;;;;;5.42;4.90;;;;;;;28.68;47.48;99232.29;1744493;81;21087;-71
2021/07/18 03:50:16;;;;;;;5.58;5.03;;;;;;;28.67;47.46;99226.58;1744494;81;21065;-71
2021/07/18 03:52:43;;;;;;;6.78;5.35;;;;;;;28.66;47.52;99230.98;1744963;80;21024;-70
2021/07/18 03:55:11;;;;;;;6.00;5.40;;;;;;;28.65;47.49;99231.55;1744586;80;20988;-71
2021/07/18 03:57:38;;;;;;;5.87;5.17;;;;;;;28.64;47.49;99225.80;1744504;81;21881;-71
2021/07/18 04:00:06;;;;;;;5.50;5.00;;;;;;;28.63;47.63;99228.30;1744371;81;21534;-71
2021/07/18 04:02:33;;;;;;;5.42;4.83;;;;;;;28.62;47.81;99229.40;1747113;81;21043;-71
2021/07/18 04:04:59;;;;;;;5.60;5.10;;;;;;;28.62;47.95;99237.03;1747793;80;21067;-70
2021/07/18 04:07:32;;;;;;;5.55;5.05;;;;;;;28.61;48.10;99233.26;1748253;80;21115;-71
2021/07/18 04:09:57;;;;;;;6.50;5.87;;;;;;;28.61;48.26;99234.62;1748362;80;21153;-71
2021/07/18 04:12:25;;;;;;;5.50;5.00;;;;;;;28.60;48.40;99233.79;1748277;80;21028;-72
2021/07/18 04:14:51;;;;;;;5.85;5.33;;;;;;;28.59;48.59;99232.75;1748429;80;21028;-71
2021/07/18 04:17:17;;;;;;;5.78;5.20;;;;;;;28.60;48.73;99235.72;1748141;80;21036;-70
2021/07/18 04:19:44;;;;;;;6.05;5.45;;;;;;;28.60;48.89;99240.63;1744451;82;21134;-71
2021/07/18 04:22:11;;;;;;;8.05;6.20;;;;;;;28.61;49.06;99240.89;1744814;82;21090;-71
2021/07/18 04:24:37;;;;;;;5.97;5.47;;;;;;;28.63;49.37;99248.23;1744359;81;21051;-71
2021/07/18 04:27:05;;;;;;;6.92;5.53;;;;;;;28.63;49.56;99241.97;1745033;81;21090;-72
2021/07/18 04:29:31;;;;;;;5.72;5.00;;;;;;;28.64;49.83;99247.67;1743015;81;21074;-72
2021/07/18 04:31:58;;;;;;;6.10;5.50;;;;;;;28.65;50.02;99246.57;1742304;81;21467;-71
2021/07/18 04:34:24;;;;;;;6.25;5.60;;;;;;;28.66;50.24;99244.64;1741410;82;21498;-71
2021/07/18 04:36:52;;;;;;;5.78;5.20;;;;;;;28.68;50.33;99247.88;1742563;82;21016;-71
2021/07/18 04:39:18;;;;;;;5.35;4.85;;;;;;;28.68;50.47;99245.95;1740706;81;21097;-71
2021/07/18 04:41:45;;;;;;;7.17;5.03;;;;;;;28.69;50.62;99252.25;1747869;80;21026;-71
2021/07/18 04:44:12;;;;;;;6.55;5.87;;;;;;;28.68;50.74;99247.31;1745951;80;21015;-71
2021/07/18 04:46:40;;;;;;;6.30;5.80;;;;;;;28.68;50.85;99243.22;1735623;81;22366;-70
2021/07/18 04:49:06;;;;;;;5.85;5.15;;;;;;;28.69;50.98;99248.95;1723754;82;21011;-73
2021/07/18 04:51:34;;;;;;;5.78;5.28;;;;;;;28.70;51.07;99253.30;1723454;82;21093;-70
2021/07/18 04:54:00;;;;;;;9.20;7.00;;;;;;;28.71;51.19;99259.59;1721399;82;21022;-70
2021/07/18 04:56:26;;;;;;;10.63;6.95;;;;;;;28.68;51.28;99255.52;1694711;83;21115;-70
2021/07/18 04:58:53;;;;;;;11.28;8.00;;;;;;;28.72;51.40;99259.27;1699123;83;21782;-68
2021/07/18 05:01:20;;;;;;;10.25;6.83;;;;;;;28.72;51.50;99264.73;1726843;82;21062;-70
2021/07/18 05:03:46;;;;;;;9.43;6.67;;;;;;;28.73;51.65;99263.64;1689131;83;21549;-69
2021/07/18 05:06:13;;;;;;;10.72;7.50;;;;;;;28.74;51.75;99268.01;1706767;83;21094;-69
2021/07/18 05:08:40;;;;;;;10.88;7.25;;;;;;;28.74;51.82;99266.64;1690319;83;21506;-70
2021/07/18 05:11:07;;;;;;;13.68;7.40;;;;;;;28.75;51.99;99266.08;1703698;83;21192;-70
2021/07/18 05:13:35;;;;;;;11.55;7.75;;;;;;;28.75;52.21;99260.05;1707728;82;21078;-70
2021/07/18 05:16:04;;;;;;;13.28;8.15;;;;;;;28.75;52.63;99266.88;1702224;83;21522;-69
2021/07/18 05:18:30;;;;;;;11.38;7.30;;;;;;;28.76;52.82;99264.95;1694436;84;21140;-71
2021/07/18 05:20:57;;;;;;;16.73;7.85;;;;;;;28.77;53.55;99262.48;1679680;85;21597;-69
2021/07/18 05:23:23;;;;;;;19.62;8.35;;;;;;;28.78;54.38;99255.89;1694742;83;21098;-69
2021/07/18 05:25:50;;;;;;;15.00;7.95;;;;;;;28.80;55.28;99253.13;1695170;83;21022;-68
2021/07/18 05:28:16;;;;;;;14.53;8.63;;;;;;;28.82;55.59;99247.37;1694911;84;21090;-69
2021/07/18 05:30:43;;;;;;;13.55;8.53;;;;;;;28.83;55.85;99242.95;1694781;84;21079;-69
2021/07/18 05:33:10;;;;;;;14.55;9.03;;;;;;;28.85;56.11;99238.55;1680328;85;21060;-69
2021/07/18 05:35:36;;;;;;;15.28;8.55;;;;;;;28.89;56.35;99253.80;1695096;84;21152;-69
2021/07/18 05:38:03;;;;;;;12.95;9.13;;;;;;;28.89;56.48;99247.77;1680193;85;21090;-69
2021/07/18 05:40:29;;;;;;;13.45;9.03;;;;;;;28.92;56.64;99248.54;1694875;84;21086;-69
2021/07/18 05:42:56;;;;;;;22.80;9.50;;;;;;;28.95;56.68;99243.02;1695038;83;21499;-69
2021/07/18 05:45:22;;;;;;;15.75;8.93;;;;;;;28.96;56.76;99244.65;1694892;83;21082;-70
2021/07/18 05:47:48;;;;;;;13.05;9.60;;;;;;;28.98;56.88;99241.86;1724697;81;21154;-70
2021/07/18 05:50:15;;;;;;;13.80;9.93;;;;;;;29.00;56.96;99241.00;1731310;82;21583;-69
2021/07/18 05:52:41;;;;;;;13.90;8.18;;;;;;;29.01;56.77;99233.06;1734310;82;21066;-69
2021/07/18 05:55:10;;;;;;;13.13;9.75;;;;;;;29.03;56.79;99234.10;1730847;82;21022;-69
2021/07/18 05:57:38;;;;;;;12.58;8.55;;;;;;;29.06;56.85;99249.11;1731342;82;21022;-69
2021/07/18 06:00:09;;;;;;;14.20;8.95;;;;;;;29.08;56.88;99241.41;1735281;82;21780;-71
2021/07/18 06:02:40;;;;;;;12.75;9.58;;;;;;;29.09;56.84;99249.86;1730495;82;21075;-70
2021/07/18 06:05:08;;;;;;;13.53;9.08;;;;;;;29.10;56.86;99249.56;1730800;82;21569;-70
2021/07/18 06:07:37;;;;;;;10.68;8.20;;;;;;;29.13;56.79;99260.47;1731055;82;21046;-70
2021/07/18 06:10:06;;;;;;;10.90;8.88;;;;;;;29.12;56.71;99254.20;1730953;82;21058;-70
2021/07/18 06:12:33;;;;;;;11.97;8.65;;;;;;;29.16;56.71;99257.94;1730898;82;21121;-70
2021/07/18 06:15:00;;;;;;;14.73;8.30;;;;;;;29.17;56.70;99264.25;1730775;82;21094;-70
2021/07/18 06:17:27;;;;;;;11.12;8.35;;;;;;;29.18;56.62;99263.12;1730790;82;21007;-71
2021/07/18 06:19:55;;;;;;;13.20;9.65;;;;;;;29.19;56.63;99262.02;1732097;82;21045;-70
2021/07/18 06:22:22;;;;;;;10.18;8.40;;;;;;;29.21;56.60;99261.95;1715669;82;21009;-70
2021/07/18 06:24:49;;;;;;;10.48;9.00;;;;;;;29.23;56.76;99265.77;1774221;79;21142;-70
2021/07/18 06:27:16;;;;;;;10.28;8.65;;;;;;;29.24;56.76;99261.09;1767828;81;21050;-70
2021/07/18 06:29:42;;;;;;;13.55;8.50;;;;;;;29.27;56.80;99263.23;1768032;81;21062;-71
2021/07/18 06:32:09;;;;;;;11.68;8.60;;;;;;;29.28;56.73;99267.01;1768043;81;21101;-70
2021/07/18 06:34:35;;;;;;;8.43;7.42;;;;;;;29.29;56.83;99265.11;1767889;81;21053;-72
2021/07/18 06:37:02;;;;;;;11.40;8.50;;;;;;;29.31;56.81;99267.78;1729070;83;21137;-71
2021/07/18 06:39:29;;;;;;;10.82;8.33;;;;;;;29.33;56.88;99270.22;1704807;82;21519;-71
2021/07/18 06:41:58;;;;;;;9.10;8.20;;;;;;;29.35;56.78;99270.72;1705900;83;20995;-70
2021/07/18 06:44:24;;;;;;;11.15;8.15;;;;;;;29.35;56.75;99271.52;1705655;82;21457;-70
2021/07/18 06:46:51;;;;;;;11.35;8.23;;;;;;;29.36;56.71;99272.33;1707994;82;21013;-70
2021/07/18 06:49:17;;;;;;;8.55;7.67;;;;;;;29.38;56.70;99276.41;1713194;83;21512;-71
2021/07/18 06:51:44;;;;;;;9.93;8.45;;;;;;;29.40;56.64;99277.47;1765626;80;21557;-69
2021/07/18 06:54:10;;;;;;;9.60;7.70;;;;;;;29.41;56.58;99274.41;1723593;82;21005;-70
2021/07/18 06:56:38;;;;;;;11.15;8.50;;;;;;;29.43;56.54;99272.73;1713488;82;21040;-69
2021/07/18 06:59:04;;;;;;;8.50;7.70;;;;;;;29.45;56.45;99273.81;1715283;82;21528;-70
2021/07/18 07:01:31;;;;;;;8.33;7.50;;;;;;;29.45;56.48;99276.55;1713122;82;21158;-70
2021/07/18 07:03:57;;;;;;;9.18;7.40;;;;;;;29.48;56.42;99275.95;1713046;81;21496;-70
2021/07/18 07:06:24;;;;;;;8.33;7.22;;;;;;;29.48;56.41;99275.38;1713195;83;20973;-71
2021/07/18 07:08:54;;;;;;;8.83;7.85;;;;;;;29.50;56.42;99270.98;1713295;83;21080;-69
2021/07/18 07:11:21;;;;;;;8.50;7.55;;;;;;;29.51;56.48;99274.75;1713390;82;20997;-69
2021/07/18 07:13:50;;;;;;;10.80;6.87;;;;;;;29.52;56.46;99272.28;1713243;82;21162;-69
2021/07/18 07:16:18;;;;;;;9.80;7.70;;;;;;;29.53;56.39;99277.99;1713179;83;21627;-69
2021/07/18 07:18:45;;;;;;;8.58;7.67;;;;;;;29.55;56.31;99271.69;1713119;82;21028;-70
2021/07/18 07:21:13;;;;;;;8.68;7.72;;;;;;;29.56;56.24;99269.75;1715258;82;21489;-70
2021/07/18 07:23:40;;;;;;;11.57;7.78;;;;;;;29.57;56.29;99274.09;1713118;83;21020;-70
2021/07/18 07:26:07;;;;;;;8.88;7.97;;;;;;;29.58;56.23;99282.00;1713137;81;21113;-68
2021/07/18 07:28:34;;;;;;;7.67;6.83;;;;;;;29.59;56.14;99278.16;1714589;83;21517;-68
2021/07/18 07:31:02;;;;;;;8.95;7.53;;;;;;;29.62;56.12;99280.03;1689050;81;21550;-69
2021/07/18 07:33:29;;;;;;;8.03;7.12;;;;;;;29.62;56.06;99281.41;1706702;82;20994;-68
2021/07/18 07:35:55;;;;;;;10.70;8.40;;;;;;;29.64;56.05;99279.17;1703366;82;21155;-70
2021/07/18 07:38:22;;;;;;;10.03;8.48;;;;;;;29.65;56.03;99276.67;1703107;84;21114;-70
2021/07/18 07:40:48;;;;;;;9.10;7.30;;;;;;;29.66;55.96;99283.21;1703288;82;21042;-69
2021/07/18 07:43:14;;;;;;;9.23;7.40;;;;;;;29.68;55.89;99280.17;1703067;82;21509;-71
2021/07/18 07:45:41;;;;;;;11.15;8.23;;;;;;;29.68;55.84;99282.34;1703046;82;21009;-70
2021/07/18 07:48:07;;;;;;;8.70;7.45;;;;;;;29.70;55.86;99283.41;1694128;83;21125;-69
2021/07/18 07:50:34;;;;;;;10.30;8.15;;;;;;;29.71;55.84;99283.65;1691268;83;21192;-69
2021/07/18 07:53:02;;;;;;;9.73;7.55;;;;;;;29.72;55.81;99282.55;1690749;83;21545;-69
2021/07/18 07:55:29;;;;;;;8.40;7.45;;;;;;;29.73;55.70;99281.47;1689821;83;21076;-69
2021/07/18 07:57:56;;;;;;;8.00;6.95;;;;;;;29.75;55.67;99286.88;1690139;84;21045;-70
2021/07/18 08:00:23;;;;;;;7.80;7.00;;;;;;;29.76;55.61;99287.69;1689831;84;21038;-70
2021/07/18 08:02:50;;;;;;;8.35;7.55;;;;;;;29.77;55.61;99286.58;1690316;84;21983;-70
2021/07/18 08:05:20;;;;;;;8.43;7.55;;;;;;;29.78;55.59;99287.63;1689800;83;21034;-70
2021/07/18 08:07:46;;;;;;;8.05;7.25;;;;;;;29.79;55.59;99281.05;1699019;82;21089;-70
2021/07/18 08:10:15;;;;;;;8.88;6.85;;;;;;;29.79;55.57;99281.05;1689644;85;21117;-70
2021/07/18 08:12:44;;;;;;;7.53;6.83;;;;;;;29.82;55.52;99277.44;1690012;84;21042;-70
2021/07/18 08:15:12;;;;;;;8.10;7.25;;;;;;;29.83;55.45;99280.44;1689786;84;21150;-70
2021/07/18 08:17:39;;;;;;;8.30;7.15;;;;;;;29.84;55.44;99271.09;1689792;84;21062;-70
2021/07/18 08:20:11;;;;;;;8.35;7.55;;;;;;;29.85;55.43;99271.36;1691028;82;21547;-70
2021/07/18 08:22:38;;;;;;;9.33;7.50;;;;;;;29.85;55.38;99269.42;1668317;85;21204;-70
2021/07/18 08:25:07;;;;;;;7.25;6.55;;;;;;;29.86;55.33;99271.03;1689784;84;21046;-70
2021/07/18 08:27:35;;;;;;;7.75;6.95;;;;;;;29.87;55.34;99267.19;1690299;84;21113;-70
2021/07/18 08:30:07;;;;;;;7.58;6.87;;;;;;;29.89;55.32;99272.36;1690110;84;21019;-70
2021/07/18 08:32:33;;;;;;;8.85;6.58;;;;;;;29.88;55.32;99264.72;1690072;84;21053;-69
2021/07/18 08:35:00;;;;;;;8.73;7.28;;;;;;;29.89;55.30;99266.31;1690271;84;21050;-70
2021/07/18 08:37:27;;;;;;;8.23;7.05;;;;;;;29.91;55.28;99272.86;1689762;84;21101;-70
2021/07/18 08:39:53;;;;;;;7.72;7.03;;;;;;;29.92;55.25;99270.36;1689726;84;21070;-70
2021/07/18 08:42:19;;;;;;;8.15;6.58;;;;;;;29.93;55.27;99273.36;1690108;84;21050;-70
2021/07/18 08:44:45;;;;;;;7.42;6.70;;;;;;;29.93;55.26;99269.25;1690271;83;21073;-70
2021/07/18 08:47:12;;;;;;;7.33;6.30;;;;;;;29.94;55.22;99270.32;1692714;83;21521;-70
2021/07/18 08:49:38;;;;;;;7.30;6.60;;;;;;;29.95;55.22;99267.81;1704169;82;21028;-70
2021/07/18 08:52:06;;;;;;;8.50;6.85;;;;;;;29.97;55.17;99265.58;1703210;82;21123;-69
2021/07/18 08:54:32;;;;;;;8.13;7.30;;;;;;;29.98;55.17;99269.15;1729817;82;20995;-69
2021/07/18 08:57:00;;;;;;;7.45;6.62;;;;;;;30.00;55.14;99265.54;1703316;83;21036;-69
2021/07/18 08:59:27;;;;;;;8.70;6.65;;;;;;;30.00;55.12;99269.65;1703072;82;21029;-69
2021/07/18 09:01:54;;;;;;;8.08;6.67;;;;;;;30.01;55.11;99275.36;1702974;82;21050;-69
2021/07/18 09:04:21;;;;;;;7.28;6.58;;;;;;;30.03;55.11;99273.12;1703020;84;21049;-69
2021/07/18 09:06:50;;;;;;;7.45;6.75;;;;;;;30.03;55.09;99269.02;1703141;82;21064;-68
2021/07/18 09:09:22;;;;;;;6.67;6.00;;;;;;;30.03;55.09;99264.10;1703118;82;21018;-69
2021/07/18 09:11:57;;;;;;;9.08;7.05;;;;;;;30.05;55.09;99261.30;1703193;82;21065;-69
2021/07/18 09:14:23;;;;;;;7.37;6.60;;;;;;;30.06;55.05;99264.87;1702933;82;21092;-70
2021/07/18 09:16:51;;;;;;;8.35;7.55;;;;;;;30.06;55.05;99253.91;1702951;84;21160;-70
2021/07/18 09:19:34;;;;;;;7.22;6.50;;;;;;;30.07;55.04;99254.14;1704120;84;21599;-69
2021/07/18 09:22:12;;;;;;;7.55;6.85;;;;;;;30.08;55.00;99257.15;1689978;82;21097;-70
2021/07/18 09:24:54;;;;;;;7.72;6.95;;;;;;;30.10;54.99;99260.38;1702342;82;21010;-70
2021/07/18 09:27:29;;;;;;;7.30;6.70;;;;;;;30.09;54.97;99248.59;1702194;82;21022;-70
2021/07/18 09:30:21;;;;;;;6.65;5.95;;;;;;;30.10;54.94;99243.95;1688483;82;21168;-71
2021/07/18 09:32:47;;;;;;;6.42;5.87;;;;;;;30.10;54.97;99247.49;1701868;84;21532;-70
2021/07/18 09:35:16;;;;;;;6.90;6.22;;;;;;;30.12;55.03;99254.84;1702920;84;21456;-70
2021/07/18 09:37:48;;;;;;;6.87;6.15;;;;;;;30.13;54.99;99253.73;1703023;82;21076;-70
2021/07/18 09:40:23;;;;;;;7.22;6.53;;;;;;;30.14;54.96;99245.75;1703338;82;21492;-70
2021/07/18 09:42:56;;;;;;;7.25;5.97;;;;;;;30.17;54.92;99242.94;1702842;82;21142;-70
2021/07/18 09:45:25;;;;;;;7.75;6.95;;;;;;;30.17;54.92;99247.88;1702988;82;21001;-70
2021/07/18 09:48:06;;;;;;;7.95;6.90;;;;;;;30.19;54.89;99237.42;1703195;82;21457;-70
2021/07/18 09:50:39;;;;;;;7.42;6.72;;;;;;;30.22;54.83;99248.30;1733609;82;21048;-71
2021/07/18 09:53:15;;;;;;;7.40;6.70;;;;;;;30.25;54.80;99250.98;1730545;81;21049;-69
2021/07/18 09:56:04;;;;;;;6.70;6.05;;;;;;;30.25;54.79;99243.59;1728595;82;21096;-70
2021/07/18 09:58:32;;;;;;;7.62;6.75;;;;;;;30.28;54.71;99244.31;1719669;82;21010;-69
2021/07/18 10:00:59;;;;;;;6.85;6.15;;;;;;;30.30;54.59;99248.13;1709418;82;21070;-70
2021/07/18 10:03:29;;;;;;;7.12;6.42;;;;;;;30.33;54.48;99251.66;1737390;82;21011;-69
2021/07/18 10:06:10;;;;;;;7.70;6.25;;;;;;;30.36;54.39;99254.55;1772958;79;21035;-70
2021/07/18 10:08:45;;;;;;;6.95;6.35;;;;;;;30.41;54.31;99254.20;1728433;83;21216;-70
2021/07/18 10:11:14;;;;;;;7.55;6.85;;;;;;;30.44;54.22;99253.56;1705727;82;21500;-70
2021/07/18 10:13:44;;;;;;;7.03;6.28;;;;;;;30.46;54.15;99241.73;1705863;82;21041;-69
2021/07/18 10:16:11;;;;;;;7.67;7.03;;;;;;;30.48;54.10;99235.37;1705792;82;21081;-70
2021/07/18 10:18:41;;;;;;;6.90;6.17;;;;;;;30.51;54.04;99232.02;1706078;83;21053;-70
2021/07/18 10:21:10;;;;;;;6.72;6.12;;;;;;;30.53;54.05;99230.56;1705312;82;21121;-69
2021/07/18 10:23:40;;;;;;;6.60;6.00;;;;;;;30.56;54.04;99229.16;1706009;83;21458;-71
2021/07/18 10:26:07;;;;;;;6.62;6.03;;;;;;;30.58;53.98;99231.02;1705844;82;22010;-69
2021/07/18 10:28:33;;;;;;;7.47;6.50;;;;;;;30.60;54.00;99228.77;1705692;82;21544;-70
2021/07/18 10:31:07;;;;;;;7.37;6.67;;;;;;;30.61;54.00;99220.78;1685271;83;21035;-69
2021/07/18 10:33:33;;;;;;;6.78;5.72;;;;;;;30.64;53.94;99216.05;1705940;83;21299;-70
2021/07/18 10:36:01;;;;;;;7.92;7.15;;;;;;;30.66;53.93;99215.17;1707259;82;21044;-69
2021/07/18 10:38:29;;;;;;;6.17;5.58;;;;;;;30.68;53.88;99209.38;1705716;83;21020;-70
2021/07/18 10:40:56;;;;;;;6.90;6.10;;;;;;;30.71;53.81;99210.10;1705662;83;21021;-70
2021/07/18 10:43:49;;;;;;;7.37;6.67;;;;;;;30.72;53.79;99204.31;1706076;82;21068;-70
2021/07/18 10:46:44;;;;;;;6.55;5.95;;;;;;;30.76;53.74;99205.30;1705815;83;21158;-69
2021/07/18 10:49:14;;;;;;;5.95;5.45;;;;;;;30.77;53.66;99200.07;1692231;83;21091;-71
2021/07/18 10:51:51;;;;;;;6.55;5.95;;;;;;;30.80;53.67;99211.53;1684867;84;21737;-69
2021/07/18 10:54:20;;;;;;;6.58;6.03;;;;;;;30.82;53.60;99199.69;1685450;84;21573;-69
2021/07/18 10:56:50;;;;;;;7.12;6.53;;;;;;;30.85;53.51;99200.41;1685227;84;21166;-71
2021/07/18 10:59:43;;;;;;;6.58;5.80;;;;;;;30.86;53.48;99196.55;1685369;84;21086;-70
2021/07/18 11:04:42;;;;;;;6.08;5.58;;;;;;;30.98;53.37;99191.87;1797261;79;22469;-70
2021/07/18 11:07:36;;;;;;;6.22;5.62;;;;;;;30.89;53.42;99193.19;1757165;81;21025;-69
2021/07/18 11:10:15;;;;;;;6.53;5.92;;;;;;;30.92;53.34;99185.71;1728608;81;21128;-70
2021/07/18 11:12:48;;;;;;;6.35;5.75;;;;;;;30.95;53.26;99190.00;1757017;81;20934;-70
2021/07/18 11:15:36;;;;;;;6.50;5.90;;;;;;;30.98;53.18;99196.78;1757278;81;21486;-69
2021/07/18 11:18:13;;;;;;;7.45;6.25;;;;;;;31.02;53.11;99192.84;1743110;81;21056;-70
2021/07/18 11:20:50;;;;;;;6.17;5.58;;;;;;;31.04;53.10;99184.56;1745334;81;21494;-70
2021/07/18 11:23:34;;;;;;;6.62;6.03;;;;;;;31.06;53.08;99180.94;1757280;81;21191;-70
2021/07/18 11:26:08;;;;;;;6.25;5.65;;;;;;;31.10;53.00;99179.71;1751295;81;21048;-70
2021/07/18 11:31:18;;;;;;;6.20;5.60;;;;;;;31.15;52.93;99187.23;1750071;81;21520;-70
2021/07/18 11:33:58;;;;;;;6.20;5.70;;;;;;;31.18;52.84;99179.49;1737275;81;21068;-70
2021/07/18 11:36:37;;;;;;;6.75;5.87;;;;;;;31.21;52.77;99178.87;1756952;81;22927;-69
2021/07/18 11:39:17;;;;;;;6.08;5.58;;;;;;;31.24;52.69;99178.23;1756922;81;21190;-71
2021/07/18 11:41:45;;;;;;;7.10;6.40;;;;;;;31.27;52.64;99185.81;1723794;81;21580;-71
2021/07/18 11:44:12;;;;;;;6.65;5.97;;;;;;;31.29;52.60;99173.41;1741467;81;21105;-71